Time;durP1;ratioP1;P1;durP2;ratioP2;P2;SDS_P1;SDS_P2;PMS_P1;PMS_P2;Temp;Humidity;BMP_temperature;BMP_pressure;BME280_temperature;BME280_humidity;BME280_pressure;Samples;Min_cycle;Max_cycle;Signal;HPM_P1;HPM_P2
2021/03/04 00:00:58;;;;;;;167.37;39.43;;;;;;;;;;4391477;32;20162;-79
2021/03/04 00:03:24;;;;;;;150.67;38.50;;;;;;;;;;4391193;32;20166;-79
2021/03/04 00:05:52;;;;;;;124.53;35.83;;;;;;;;;;4395621;32;20188;-79
2021/03/04 00:08:19;;;;;;;152.37;39.90;;;;;;;;;;4404855;32;20146;-79
2021/03/04 00:10:55;;;;;;;163.77;37.97;;;;;;;;;;4391288;32;20180;-79
2021/03/04 00:13:20;;;;;;;132.20;35.57;;;;;;;;;;4391115;32;20185;-79
2021/03/04 00:15:45;;;;;;;129.37;35.23;;;;;;;;;;4390878;32;20166;-79
2021/03/04 00:18:16;;;;;;;148.57;38.10;;;;;;;;;;4377867;32;20177;-79
2021/03/04 00:20:41;;;;;;;151.57;39.37;;;;;;;;;;4391054;32;20170;-78
2021/03/04 00:23:07;;;;;;;138.57;39.70;;;;;;;;;;4405249;32;20613;-79
2021/03/04 00:25:35;;;;;;;143.10;37.30;;;;;;;;;;4390676;32;20229;-79
2021/03/04 00:28:01;;;;;;;145.23;37.70;;;;;;;;;;4403534;32;20196;-79
2021/03/04 00:30:27;;;;;;;117.40;30.77;;;;;;;;;;4391481;32;20641;-79
2021/03/04 00:32:52;;;;;;;116.17;32.63;;;;;;;;;;4390643;32;20169;-79
2021/03/04 00:35:20;;;;;;;109.33;31.77;;;;;;;;;;4404901;32;20478;-78
2021/03/04 00:37:45;;;;;;;125.47;32.10;;;;;;;;;;4390710;32;20162;-78
2021/03/04 00:40:28;;;;;;;119.30;32.53;;;;;;;;;;4390737;32;20211;-78
2021/03/04 00:42:53;;;;;;;109.57;31.10;;;;;;;;;;4391352;32;20197;-80
2021/03/04 00:45:19;;;;;;;119.03;32.53;;;;;;;;;;4387249;32;20555;-80
2021/03/04 00:47:45;;;;;;;114.60;32.03;;;;;;;;;;4377495;32;20197;-79
2021/03/04 00:50:18;;;;;;;154.63;36.30;;;;;;;;;;4378460;32;20170;-79
2021/03/04 00:52:59;;;;;;;120.10;33.03;;;;;;;;;;4378770;32;20163;-79
2021/03/04 00:55:24;;;;;;;115.80;34.20;;;;;;;;;;4378258;32;20287;-80
2021/03/04 00:57:49;;;;;;;131.00;34.93;;;;;;;;;;4378609;32;20599;-80
2021/03/04 01:00:15;;;;;;;137.30;35.93;;;;;;;;;;4378325;32;20518;-79
2021/03/04 01:02:40;;;;;;;124.63;36.93;;;;;;;;;;4378056;32;20576;-79
2021/03/04 01:05:05;;;;;;;129.63;36.10;;;;;;;;;;4378231;32;20186;-79
2021/03/04 01:07:34;;;;;;;132.20;37.30;;;;;;;;;;4379154;32;20224;-79
2021/03/04 01:09:59;;;;;;;119.43;35.20;;;;;;;;;;4378601;32;20188;-79
2021/03/04 01:12:32;;;;;;;131.13;34.90;;;;;;;;;;4378136;32;20281;-79
2021/03/04 01:14:57;;;;;;;136.17;35.70;;;;;;;;;;4378939;32;20166;-79
2021/03/04 01:17:23;;;;;;;137.80;36.67;;;;;;;;;;4378116;32;20209;-79
2021/03/04 01:19:48;;;;;;;122.10;33.97;;;;;;;;;;4378085;32;20197;-78
2021/03/04 01:22:13;;;;;;;129.87;35.13;;;;;;;;;;4378363;32;20193;-79
2021/03/04 01:24:41;;;;;;;121.70;31.50;;;;;;;;;;4378628;32;20208;-78
2021/03/04 01:27:07;;;;;;;127.13;34.63;;;;;;;;;;4389881;32;20192;-79
2021/03/04 01:29:35;;;;;;;109.87;31.17;;;;;;;;;;4393080;32;20229;-79
2021/03/04 01:32:10;;;;;;;145.87;36.87;;;;;;;;;;4392915;32;20184;-79
2021/03/04 01:34:35;;;;;;;128.83;33.83;;;;;;;;;;4407670;32;20134;-79
2021/03/04 01:37:00;;;;;;;129.17;32.80;;;;;;;;;;4392821;32;20181;-79
2021/03/04 01:39:26;;;;;;;137.93;34.07;;;;;;;;;;4392810;32;20228;-79
2021/03/04 01:42:00;;;;;;;118.90;36.07;;;;;;;;;;4393101;32;20166;-79
2021/03/04 01:44:25;;;;;;;167.53;37.90;;;;;;;;;;4393270;32;20228;-79
2021/03/04 01:46:51;;;;;;;151.50;35.77;;;;;;;;;;4392670;32;20166;-81
2021/03/04 01:49:16;;;;;;;143.23;34.13;;;;;;;;;;4392811;32;20191;-81
2021/03/04 01:51:41;;;;;;;122.17;33.70;;;;;;;;;;4393040;32;20170;-81
2021/03/04 01:54:07;;;;;;;127.17;34.13;;;;;;;;;;4392654;32;20184;-81
2021/03/04 01:56:33;;;;;;;129.50;34.83;;;;;;;;;;4392877;32;20170;-79
2021/03/04 01:58:58;;;;;;;138.87;35.03;;;;;;;;;;4392065;32;20201;-79
2021/03/04 02:01:24;;;;;;;114.57;33.17;;;;;;;;;;4407231;32;20169;-79
2021/03/04 02:03:51;;;;;;;108.13;30.90;;;;;;;;;;4393119;32;20235;-79
2021/03/04 02:06:19;;;;;;;104.97;30.90;;;;;;;;;;4407018;32;20575;-79
2021/03/04 02:08:50;;;;;;;124.23;32.53;;;;;;;;;;4406215;32;20142;-79
2021/03/04 02:11:27;;;;;;;125.30;33.70;;;;;;;;;;4393103;32;20162;-79
2021/03/04 02:14:10;;;;;;;152.20;32.97;;;;;;;;;;4393011;32;20193;-79
2021/03/04 02:16:37;;;;;;;160.90;33.70;;;;;;;;;;4406214;32;20199;-79
2021/03/04 02:19:07;;;;;;;154.50;36.83;;;;;;;;;;4392339;32;20188;-79
2021/03/04 02:21:37;;;;;;;231.47;41.43;;;;;;;;;;4392564;32;20209;-79
2021/03/04 02:24:28;;;;;;;170.10;38.77;;;;;;;;;;4392004;32;20625;-79
2021/03/04 02:27:05;;;;;;;153.20;38.50;;;;;;;;;;4389458;32;20617;-79
2021/03/04 02:29:54;;;;;;;154.20;35.90;;;;;;;;;;4389948;32;20192;-79
2021/03/04 02:32:22;;;;;;;142.77;35.27;;;;;;;;;;4383976;32;20178;-79
2021/03/04 02:34:49;;;;;;;133.87;33.50;;;;;;;;;;4389762;32;20588;-79
2021/03/04 02:37:16;;;;;;;145.07;34.90;;;;;;;;;;4389424;32;20196;-79
2021/03/04 02:39:44;;;;;;;144.03;35.47;;;;;;;;;;4391061;32;20165;-78
2021/03/04 02:42:09;;;;;;;131.33;31.70;;;;;;;;;;4389407;32;20236;-79
2021/03/04 02:44:37;;;;;;;129.03;32.70;;;;;;;;;;4389403;32;20166;-79
2021/03/04 02:47:16;;;;;;;125.87;33.70;;;;;;;;;;4390769;32;20564;-79
2021/03/04 02:49:44;;;;;;;133.97;34.03;;;;;;;;;;4389809;32;20158;-79
2021/03/04 02:52:09;;;;;;;144.37;35.30;;;;;;;;;;4389255;32;20202;-79
2021/03/04 02:54:35;;;;;;;146.90;34.80;;;;;;;;;;4389319;32;20197;-79
2021/03/04 02:57:07;;;;;;;175.30;36.87;;;;;;;;;;4389014;32;20192;-79
2021/03/04 02:59:37;;;;;;;163.83;38.73;;;;;;;;;;4389919;32;20162;-79
2021/03/04 03:02:06;;;;;;;167.33;36.57;;;;;;;;;;4389186;32;20560;-79
2021/03/04 03:04:48;;;;;;;181.00;41.27;;;;;;;;;;4390316;32;20584;-79
2021/03/04 03:07:13;;;;;;;181.80;40.57;;;;;;;;;;4389029;32;20212;-79
2021/03/04 03:09:40;;;;;;;214.37;41.87;;;;;;;;;;4388605;32;20638;-79
2021/03/04 03:12:09;;;;;;;250.53;43.80;;;;;;;;;;4388836;32;20166;-79
2021/03/04 03:14:35;;;;;;;193.13;41.13;;;;;;;;;;4390808;32;20165;-80
2021/03/04 03:17:00;;;;;;;202.43;41.57;;;;;;;;;;4389450;32;20167;-79
2021/03/04 03:19:28;;;;;;;228.97;44.17;;;;;;;;;;4390186;32;20154;-79
2021/03/04 03:21:54;;;;;;;200.77;43.37;;;;;;;;;;4389890;32;20589;-79
2021/03/04 03:24:19;;;;;;;203.37;42.77;;;;;;;;;;4388949;32;20213;-79
2021/03/04 03:26:45;;;;;;;244.43;44.90;;;;;;;;;;4399438;32;20598;-79
2021/03/04 03:29:10;;;;;;;224.90;43.57;;;;;;;;;;4391331;32;20200;-79
2021/03/04 03:31:37;;;;;;;243.00;43.03;;;;;;;;;;4391309;32;20219;-80
2021/03/04 03:34:03;;;;;;;182.00;41.17;;;;;;;;;;4405170;32;20201;-80
2021/03/04 03:36:31;;;;;;;193.03;37.83;;;;;;;;;;4390074;32;20205;-80
2021/03/04 03:38:58;;;;;;;198.30;41.97;;;;;;;;;;4391261;32;20227;-80
2021/03/04 03:41:27;;;;;;;163.73;37.23;;;;;;;;;;4391084;32;20167;-79
2021/03/04 03:43:53;;;;;;;186.63;40.37;;;;;;;;;;4391068;32;20219;-79
2021/03/04 03:46:18;;;;;;;153.43;37.37;;;;;;;;;;4391136;32;20166;-79
2021/03/04 03:48:44;;;;;;;176.63;39.40;;;;;;;;;;4391539;32;20166;-79
2021/03/04 03:51:10;;;;;;;152.60;36.50;;;;;;;;;;4391684;32;20204;-79
2021/03/04 03:53:35;;;;;;;157.97;36.03;;;;;;;;;;4391023;32;20484;-79
2021/03/04 03:56:01;;;;;;;150.03;35.80;;;;;;;;;;4391316;32;20520;-79
2021/03/04 03:58:27;;;;;;;156.57;34.73;;;;;;;;;;4391076;32;20471;-80
2021/03/04 04:00:55;;;;;;;137.93;36.70;;;;;;;;;;4391274;32;20509;-80
2021/03/04 04:03:21;;;;;;;130.53;33.80;;;;;;;;;;4391460;32;20158;-79
2021/03/04 04:05:47;;;;;;;131.40;35.30;;;;;;;;;;4391322;32;20668;-79
2021/03/04 04:08:13;;;;;;;153.43;38.17;;;;;;;;;;4405302;32;20164;-79
2021/03/04 04:10:46;;;;;;;125.67;35.57;;;;;;;;;;4404897;32;20196;-80
2021/03/04 04:13:13;;;;;;;129.50;35.17;;;;;;;;;;4404091;32;20606;-79
2021/03/04 04:15:38;;;;;;;150.73;37.33;;;;;;;;;;4403520;32;20157;-79
2021/03/04 04:18:04;;;;;;;146.70;35.53;;;;;;;;;;4403795;32;20189;-79
2021/03/04 04:20:30;;;;;;;133.33;33.50;;;;;;;;;;4405750;32;20173;-79
2021/03/04 04:22:56;;;;;;;154.93;36.37;;;;;;;;;;4407725;32;20725;-80
2021/03/04 04:25:22;;;;;;;145.03;36.03;;;;;;;;;;4406201;32;20207;-80
2021/03/04 04:28:59;;;;;;;126.87;34.83;;;;;;;;;;4379061;32;20177;-79
2021/03/04 04:30:55;;;;;;;122.60;32.63;;;;;;;;;;4379271;32;20477;-79
2021/03/04 04:33:20;;;;;;;140.60;35.67;;;;;;;;;;4378555;32;20505;-79
2021/03/04 04:35:46;;;;;;;145.40;36.80;;;;;;;;;;4378617;32;20189;-79
2021/03/04 04:38:11;;;;;;;145.27;34.37;;;;;;;;;;4393015;32;20572;-79
2021/03/04 04:40:37;;;;;;;138.40;34.60;;;;;;;;;;4379159;32;20187;-79
2021/03/04 04:43:03;;;;;;;126.53;33.27;;;;;;;;;;4378795;32;20593;-79
2021/03/04 04:45:31;;;;;;;137.60;36.50;;;;;;;;;;4378833;32;20596;-79
2021/03/04 04:47:56;;;;;;;121.40;32.43;;;;;;;;;;4379306;32;20170;-79
2021/03/04 04:50:31;;;;;;;124.57;31.93;;;;;;;;;;4378329;32;20557;-79
2021/03/04 04:53:05;;;;;;;124.07;33.13;;;;;;;;;;4378883;32;20189;-79
2021/03/04 04:55:30;;;;;;;114.47;30.63;;;;;;;;;;4378935;32;20196;-79
2021/03/04 04:57:56;;;;;;;119.03;32.40;;;;;;;;;;4378825;32;20571;-79
2021/03/04 05:00:21;;;;;;;109.37;31.27;;;;;;;;;;4391120;32;20186;-79
2021/03/04 05:02:47;;;;;;;124.93;33.73;;;;;;;;;;4378264;32;20193;-80
2021/03/04 05:05:15;;;;;;;101.97;31.80;;;;;;;;;;4378618;32;20163;-79
2021/03/04 05:07:52;;;;;;;103.77;31.33;;;;;;;;;;4392651;32;20134;-79
2021/03/04 05:10:27;;;;;;;107.37;31.83;;;;;;;;;;4378303;32;20167;-79
2021/03/04 05:13:03;;;;;;;116.70;33.07;;;;;;;;;;4392915;32;20138;-79
2021/03/04 05:15:29;;;;;;;110.10;30.87;;;;;;;;;;4393005;32;20628;-79
2021/03/04 05:17:55;;;;;;;110.53;31.70;;;;;;;;;;4378434;32;20162;-80
2021/03/04 05:20:20;;;;;;;134.30;35.53;;;;;;;;;;4378068;32;20504;-78
2021/03/04 05:22:49;;;;;;;143.43;37.33;;;;;;;;;;4378609;32;20232;-79
2021/03/04 05:25:14;;;;;;;142.57;38.63;;;;;;;;;;4391852;32;20169;-78
2021/03/04 05:27:39;;;;;;;136.00;38.77;;;;;;;;;;4390185;32;20626;-78
2021/03/04 05:30:06;;;;;;;136.30;37.77;;;;;;;;;;4390919;32;20224;-78
2021/03/04 05:32:31;;;;;;;122.10;34.03;;;;;;;;;;4389975;32;20188;-79
2021/03/04 05:34:56;;;;;;;127.20;35.97;;;;;;;;;;4390792;32;20166;-78
2021/03/04 05:37:21;;;;;;;118.70;35.10;;;;;;;;;;4391249;32;20167;-79
2021/03/04 05:39:47;;;;;;;114.23;34.00;;;;;;;;;;4390595;32;20678;-79
2021/03/04 05:42:16;;;;;;;125.43;36.57;;;;;;;;;;4391874;32;20169;-78
2021/03/04 05:44:42;;;;;;;124.53;34.30;;;;;;;;;;4390120;32;20174;-79
2021/03/04 05:47:17;;;;;;;129.27;37.73;;;;;;;;;;4390180;32;20595;-78
2021/03/04 05:49:57;;;;;;;127.60;36.53;;;;;;;;;;4390533;32;20224;-76
2021/03/04 05:52:23;;;;;;;123.10;36.13;;;;;;;;;;4390134;32;20589;-77
2021/03/04 05:54:51;;;;;;;123.10;36.67;;;;;;;;;;4390178;32;20255;-78
2021/03/04 05:57:17;;;;;;;123.50;37.90;;;;;;;;;;4389961;32;20194;-80
2021/03/04 05:59:43;;;;;;;127.50;39.53;;;;;;;;;;4390131;32;20171;-78
2021/03/04 06:02:08;;;;;;;134.70;40.43;;;;;;;;;;4390312;32;20443;-76
2021/03/04 06:04:34;;;;;;;136.47;39.80;;;;;;;;;;4390078;32;20201;-80
2021/03/04 06:06:59;;;;;;;125.50;39.13;;;;;;;;;;4391041;32;20143;-79
2021/03/04 06:09:27;;;;;;;143.10;41.73;;;;;;;;;;4390848;32;20170;-78
2021/03/04 06:11:52;;;;;;;132.07;40.70;;;;;;;;;;4390272;32;20200;-80
2021/03/04 06:14:21;;;;;;;126.07;39.43;;;;;;;;;;4390245;32;20166;-80
2021/03/04 06:16:46;;;;;;;136.47;41.80;;;;;;;;;;4389733;32;20165;-78
2021/03/04 06:19:20;;;;;;;135.23;41.03;;;;;;;;;;4389878;32;20185;-79
2021/03/04 06:21:57;;;;;;;130.33;40.43;;;;;;;;;;4390051;32;20169;-77
2021/03/04 06:24:22;;;;;;;123.33;38.83;;;;;;;;;;4389777;32;20190;-77
2021/03/04 06:26:56;;;;;;;118.77;37.10;;;;;;;;;;4400402;32;20460;-78
2021/03/04 06:29:24;;;;;;;111.70;34.83;;;;;;;;;;4406210;32;20146;-77
2021/03/04 06:32:04;;;;;;;113.60;36.60;;;;;;;;;;4405757;32;20219;-79
2021/03/04 06:34:30;;;;;;;117.00;37.43;;;;;;;;;;4391919;32;20602;-78
2021/03/04 06:37:05;;;;;;;107.90;34.90;;;;;;;;;;4391867;32;20216;-79
2021/03/04 06:39:44;;;;;;;110.43;34.60;;;;;;;;;;4391780;32;20213;-78
2021/03/04 06:42:10;;;;;;;109.13;34.23;;;;;;;;;;4405298;32;20173;-77
2021/03/04 06:44:39;;;;;;;102.57;32.93;;;;;;;;;;4391478;32;20193;-77
2021/03/04 06:47:05;;;;;;;96.70;32.13;;;;;;;;;;4391510;32;20188;-77
2021/03/04 06:49:41;;;;;;;103.07;32.03;;;;;;;;;;4392399;32;20170;-78
2021/03/04 06:52:06;;;;;;;101.70;32.20;;;;;;;;;;4391771;32;20161;-77
2021/03/04 06:54:31;;;;;;;96.07;31.87;;;;;;;;;;4392146;32;20162;-75
2021/03/04 06:57:07;;;;;;;106.20;32.03;;;;;;;;;;4405830;32;20169;-77
2021/03/04 07:00:03;;;;;;;86.33;29.00;;;;;;;;;;4391574;32;20211;-80
2021/03/04 07:02:29;;;;;;;91.60;29.77;;;;;;;;;;4388220;32;20229;-80
2021/03/04 07:04:55;;;;;;;88.37;28.67;;;;;;;;;;4387526;32;20181;-79
2021/03/04 07:07:22;;;;;;;90.27;28.47;;;;;;;;;;4392581;32;20567;-77
2021/03/04 07:09:47;;;;;;;93.60;30.83;;;;;;;;;;4375717;32;20201;-77
2021/03/04 07:12:13;;;;;;;104.37;32.63;;;;;;;;;;4375942;32;20512;-78
2021/03/04 07:14:38;;;;;;;100.47;35.50;;;;;;;;;;4384134;32;20178;-80
2021/03/04 07:17:04;;;;;;;94.13;30.13;;;;;;;;;;4361164;32;20158;-78
2021/03/04 07:19:30;;;;;;;97.57;32.13;;;;;;;;;;4360904;32;20704;-78
2021/03/04 07:22:08;;;;;;;95.27;31.23;;;;;;;;;;4360787;32;20166;-78
2021/03/04 07:24:33;;;;;;;97.07;32.07;;;;;;;;;;4375155;32;20134;-74
2021/03/04 07:26:58;;;;;;;105.37;33.03;;;;;;;;;;4361087;32;20228;-75
2021/03/04 07:29:23;;;;;;;100.83;32.57;;;;;;;;;;4387831;32;20143;-80
2021/03/04 07:31:52;;;;;;;92.83;31.67;;;;;;;;;;4389511;32;20512;-78
2021/03/04 07:34:21;;;;;;;91.60;29.87;;;;;;;;;;4375541;32;20170;-79
2021/03/04 07:36:47;;;;;;;95.13;30.53;;;;;;;;;;4376233;32;20166;-77
2021/03/04 07:39:13;;;;;;;104.10;31.90;;;;;;;;;;4375748;32;20179;-78
2021/03/04 07:41:40;;;;;;;104.00;31.83;;;;;;;;;;4376166;32;20163;-79
2021/03/04 07:44:08;;;;;;;112.10;31.50;;;;;;;;;;4375630;32;20192;-78
2021/03/04 07:46:44;;;;;;;107.90;32.93;;;;;;;;;;4375746;32;20219;-79
2021/03/04 07:49:10;;;;;;;100.70;29.53;;;;;;;;;;4389281;32;20196;-78
2021/03/04 07:51:42;;;;;;;107.33;33.33;;;;;;;;;;4375272;32;20158;-79
2021/03/04 07:54:26;;;;;;;113.50;33.63;;;;;;;;;;4389434;32;20150;-79
2021/03/04 07:57:03;;;;;;;119.40;34.57;;;;;;;;;;4389128;32;20200;-77
2021/03/04 07:59:49;;;;;;;123.77;34.93;;;;;;;;;;4374909;32;20261;-78
2021/03/04 08:02:46;;;;;;;118.33;31.60;;;;;;;;;;4367845;32;20174;-78
2021/03/04 08:05:13;;;;;;;119.43;33.23;;;;;;;;;;4353312;32;20241;-77
2021/03/04 08:07:42;;;;;;;107.37;32.87;;;;;;;;;;4360841;32;20170;-79
2021/03/04 08:10:40;;;;;;;108.23;31.50;;;;;;;;;;4374280;32;20548;-78
2021/03/04 08:13:02;;;;;;;99.00;30.33;;;;;;;;;;4387240;32;20283;-79
2021/03/04 08:15:57;;;;;;;112.10;32.67;;;;;;;;;;4375430;32;20166;-79
2021/03/04 08:18:23;;;;;;;111.20;31.23;;;;;;;;;;4365644;32;20193;-78
2021/03/04 08:20:49;;;;;;;107.07;33.10;;;;;;;;;;4375323;32;20221;-79
2021/03/04 08:23:27;;;;;;;118.63;33.17;;;;;;;;;;4389362;32;20139;-78
2021/03/04 08:25:56;;;;;;;109.17;29.83;;;;;;;;;;4378901;32;20173;-79
2021/03/04 08:28:29;;;;;;;108.10;30.87;;;;;;;;;;4375569;32;20483;-79
2021/03/04 08:31:13;;;;;;;108.00;31.57;;;;;;;;;;4375207;32;20538;-79
2021/03/04 08:33:51;;;;;;;;;;;;;;;;;;;;;
2021/03/04 08:36:16;;;;;;;114.73;33.00;;;;;;;;;;4389145;32;20150;-78
2021/03/04 08:38:42;;;;;;;123.50;32.40;;;;;;;;;;4374654;32;20619;-75
2021/03/04 08:41:08;;;;;;;130.30;33.63;;;;;;;;;;4374996;32;20217;-79
2021/03/04 08:43:33;;;;;;;118.97;32.67;;;;;;;;;;4375171;32;20204;-77
2021/03/04 08:46:03;;;;;;;110.03;31.33;;;;;;;;;;4375186;32;20197;-78
2021/03/04 08:48:28;;;;;;;100.70;29.90;;;;;;;;;;4388538;32;20162;-78
2021/03/04 08:50:55;;;;;;;109.53;30.10;;;;;;;;;;4374644;32;20193;-78
2021/03/04 08:53:21;;;;;;;115.57;32.53;;;;;;;;;;4395777;32;20225;-78
2021/03/04 08:55:51;;;;;;;113.10;30.87;;;;;;;;;;4390002;32;20193;-74
2021/03/04 08:58:31;;;;;;;115.47;30.17;;;;;;;;;;4375207;32;20174;-78
2021/03/04 09:00:58;;;;;;;110.13;29.97;;;;;;;;;;4375459;32;20230;-78
2021/03/04 09:03:25;;;;;;;108.27;28.83;;;;;;;;;;4375489;32;20634;-75
2021/03/04 09:05:50;;;;;;;115.60;29.60;;;;;;;;;;4374993;32;20170;-79
2021/03/04 09:08:17;;;;;;;121.00;30.93;;;;;;;;;;4375956;32;20658;-79
2021/03/04 09:10:43;;;;;;;123.17;31.93;;;;;;;;;;4377633;32;20163;-79
2021/03/04 09:13:11;;;;;;;117.93;30.73;;;;;;;;;;4391377;32;20158;-79
2021/03/04 09:15:43;;;;;;;110.00;30.43;;;;;;;;;;4395968;32;20491;-80
2021/03/04 09:18:09;;;;;;;122.87;31.73;;;;;;;;;;4383300;32;20196;-81
2021/03/04 09:20:34;;;;;;;121.00;29.90;;;;;;;;;;4384829;32;20163;-80
2021/03/04 09:23:00;;;;;;;119.40;31.50;;;;;;;;;;4383447;32;20182;-80
2021/03/04 09:25:33;;;;;;;113.77;30.20;;;;;;;;;;4378080;32;20205;-79
2021/03/04 09:28:02;;;;;;;138.77;31.93;;;;;;;;;;4375003;32;20525;-78
2021/03/04 09:30:29;;;;;;;112.13;30.13;;;;;;;;;;4375330;32;20201;-80
2021/03/04 09:32:57;;;;;;;112.77;30.30;;;;;;;;;;4374583;32;20218;-80
2021/03/04 09:35:23;;;;;;;123.20;29.57;;;;;;;;;;4372403;32;20200;-80
2021/03/04 09:37:49;;;;;;;133.40;32.67;;;;;;;;;;4373599;32;20188;-81
2021/03/04 09:40:30;;;;;;;124.63;31.27;;;;;;;;;;4374280;32;20231;-80
2021/03/04 09:42:55;;;;;;;120.13;29.83;;;;;;;;;;4375948;32;20213;-79
2021/03/04 09:45:28;;;;;;;117.33;29.97;;;;;;;;;;4374802;32;20197;-80
2021/03/04 09:47:56;;;;;;;137.80;32.40;;;;;;;;;;4374164;32;20693;-81
2021/03/04 09:50:26;;;;;;;121.17;30.40;;;;;;;;;;4371824;32;20201;-79
2021/03/04 09:53:13;;;;;;;106.70;29.13;;;;;;;;;;4371499;32;20218;-81
2021/03/04 09:55:39;;;;;;;109.17;31.50;;;;;;;;;;4373753;32;20189;-81
2021/03/04 09:58:14;;;;;;;92.07;28.30;;;;;;;;;;4374355;32;20177;-81
2021/03/04 10:00:40;;;;;;;99.23;29.43;;;;;;;;;;4373973;32;20267;-76
2021/03/04 10:03:10;;;;;;;106.80;29.23;;;;;;;;;;4372722;32;20804;-81
2021/03/04 10:05:44;;;;;;;101.60;30.00;;;;;;;;;;4373100;32;20229;-78
2021/03/04 10:08:10;;;;;;;107.73;31.03;;;;;;;;;;4385526;32;20209;-77
2021/03/04 10:10:41;;;;;;;88.13;26.57;;;;;;;;;;4389350;32;20162;-76
2021/03/04 10:13:06;;;;;;;83.33;26.10;;;;;;;;;;4374279;32;20241;-77
2021/03/04 10:15:38;;;;;;;82.10;26.70;;;;;;;;;;4387528;32;20167;-78
2021/03/04 10:18:14;;;;;;;70.57;23.77;;;;;;;;;;4372186;32;20200;-75
2021/03/04 10:20:46;;;;;;;73.23;24.07;;;;;;;;;;4373263;32;20291;-75
2021/03/04 10:23:12;;;;;;;65.97;22.23;;;;;;;;;;4385832;32;20170;-78
2021/03/04 10:25:37;;;;;;;65.33;22.03;;;;;;;;;;4368915;32;20193;-75
2021/03/04 10:28:03;;;;;;;61.70;21.80;;;;;;;;;;4377553;32;20193;-73
2021/03/04 10:30:30;;;;;;;62.33;21.07;;;;;;;;;;4400413;32;20612;-77
2021/03/04 10:32:55;;;;;;;63.07;19.83;;;;;;;;;;4375868;32;20169;-76
2021/03/04 10:35:21;;;;;;;54.73;19.27;;;;;;;;;;4376334;32;20196;-73
2021/03/04 10:37:46;;;;;;;53.00;19.07;;;;;;;;;;4376414;32;20503;-76
2021/03/04 10:40:12;;;;;;;45.87;17.13;;;;;;;;;;4375038;32;20167;-76
2021/03/04 10:42:38;;;;;;;56.50;19.00;;;;;;;;;;4389398;32;20622;-72
2021/03/04 10:45:09;;;;;;;51.33;17.93;;;;;;;;;;4375831;32;20166;-76
2021/03/04 10:47:35;;;;;;;46.93;17.47;;;;;;;;;;4375357;32;20170;-75
2021/03/04 10:50:00;;;;;;;51.10;18.73;;;;;;;;;;4389752;32;20216;-75
2021/03/04 10:52:26;;;;;;;44.90;16.77;;;;;;;;;;4375734;32;20171;-77
2021/03/04 10:54:52;;;;;;;44.13;15.63;;;;;;;;;;4389450;32;20134;-76
2021/03/04 10:57:17;;;;;;;33.40;13.37;;;;;;;;;;4375740;32;20582;-74
2021/03/04 10:59:42;;;;;;;32.57;13.03;;;;;;;;;;4376115;32;20171;-75
2021/03/04 11:02:07;;;;;;;32.87;14.20;;;;;;;;;;4389878;32;20185;-75
2021/03/04 11:04:33;;;;;;;32.07;11.70;;;;;;;;;;4389697;32;20146;-76
2021/03/04 11:06:58;;;;;;;28.83;12.03;;;;;;;;;;4375563;32;20182;-75
2021/03/04 11:09:23;;;;;;;27.50;12.03;;;;;;;;;;4375663;32;20175;-74
2021/03/04 11:11:49;;;;;;;29.77;12.03;;;;;;;;;;4385170;32;20635;-72
2021/03/04 11:14:14;;;;;;;29.53;12.47;;;;;;;;;;4388960;32;20583;-74
2021/03/04 11:16:39;;;;;;;27.30;11.67;;;;;;;;;;4390020;32;20142;-70
2021/03/04 11:19:05;;;;;;;28.97;12.33;;;;;;;;;;4375310;32;20239;-73
2021/03/04 11:21:30;;;;;;;29.27;12.13;;;;;;;;;;4385519;32;20162;-76
2021/03/04 11:23:55;;;;;;;28.17;11.90;;;;;;;;;;4374653;32;20178;-71
2021/03/04 11:26:21;;;;;;;28.07;12.57;;;;;;;;;;4372564;32;20174;-75
2021/03/04 11:28:46;;;;;;;30.03;12.80;;;;;;;;;;4373573;32;20222;-76
2021/03/04 11:31:11;;;;;;;26.83;12.30;;;;;;;;;;4371897;32;20175;-71
2021/03/04 11:33:36;;;;;;;27.80;11.70;;;;;;;;;;4385827;32;20170;-73
2021/03/04 11:36:02;;;;;;;25.90;11.43;;;;;;;;;;4386522;32;20201;-75
2021/03/04 11:38:29;;;;;;;24.87;10.87;;;;;;;;;;4388950;32;20155;-76
2021/03/04 11:40:55;;;;;;;24.57;11.80;;;;;;;;;;4389192;32;20165;-76
2021/03/04 11:43:20;;;;;;;26.33;12.00;;;;;;;;;;4389754;32;20154;-75
2021/03/04 11:45:45;;;;;;;24.37;11.37;;;;;;;;;;4388997;32;20169;-76
2021/03/04 11:48:13;;;;;;;24.67;12.33;;;;;;;;;;4387609;32;20193;-75
2021/03/04 11:50:39;;;;;;;22.77;10.53;;;;;;;;;;4387779;32;20255;-76
2021/03/04 11:53:05;;;;;;;21.10;10.53;;;;;;;;;;4389084;32;20518;-76
2021/03/04 11:55:31;;;;;;;19.10;10.17;;;;;;;;;;4387344;32;20189;-75
2021/03/04 11:57:57;;;;;;;24.03;10.27;;;;;;;;;;4385983;32;20619;-76
2021/03/04 12:00:22;;;;;;;17.90;8.70;;;;;;;;;;4388388;32;20216;-75
2021/03/04 12:02:47;;;;;;;21.23;8.67;;;;;;;;;;4387451;32;20177;-76
2021/03/04 12:05:13;;;;;;;17.97;9.43;;;;;;;;;;4387852;32;20166;-75
2021/03/04 12:07:38;;;;;;;21.37;9.77;;;;;;;;;;4387677;32;20165;-77
2021/03/04 12:10:03;;;;;;;17.07;9.10;;;;;;;;;;4387714;32;20584;-75
2021/03/04 12:12:28;;;;;;;23.00;9.67;;;;;;;;;;4387366;32;20255;-74
2021/03/04 12:14:54;;;;;;;16.60;9.10;;;;;;;;;;4399803;32;20288;-76
2021/03/04 12:17:20;;;;;;;13.53;7.77;;;;;;;;;;4389169;32;20178;-76
2021/03/04 12:19:45;;;;;;;16.43;8.50;;;;;;;;;;4388942;32;20158;-75
2021/03/04 12:22:10;;;;;;;15.67;8.33;;;;;;;;;;4389002;32;20181;-75
2021/03/04 12:24:36;;;;;;;17.57;8.70;;;;;;;;;;4387249;32;20158;-76
2021/03/04 12:27:01;;;;;;;17.70;8.00;;;;;;;;;;4388271;32;20513;-75
2021/03/04 12:29:26;;;;;;;19.80;8.03;;;;;;;;;;4374806;32;20170;-74
2021/03/04 12:31:51;;;;;;;20.03;7.90;;;;;;;;;;4388633;32;20146;-76
2021/03/04 12:34:17;;;;;;;14.30;8.03;;;;;;;;;;4388917;32;20138;-76
2021/03/04 12:36:43;;;;;;;11.97;7.03;;;;;;;;;;4375188;32;20167;-75
2021/03/04 12:39:08;;;;;;;13.40;7.17;;;;;;;;;;4375264;32;20622;-75
2021/03/04 12:41:33;;;;;;;11.60;6.70;;;;;;;;;;4389477;32;20158;-75
2021/03/04 12:43:59;;;;;;;12.33;6.47;;;;;;;;;;4391415;32;20197;-75
2021/03/04 12:46:24;;;;;;;12.33;5.93;;;;;;;;;;4391267;32;20143;-76
2021/03/04 12:48:49;;;;;;;12.47;6.43;;;;;;;;;;4377517;32;20213;-75
2021/03/04 12:51:15;;;;;;;13.53;6.27;;;;;;;;;;4377562;32;20462;-76
2021/03/04 12:53:40;;;;;;;13.67;6.60;;;;;;;;;;4391080;32;20197;-75
2021/03/04 12:56:05;;;;;;;12.40;7.10;;;;;;;;;;4378068;32;20178;-74
2021/03/04 12:58:30;;;;;;;13.37;7.40;;;;;;;;;;4391073;32;20165;-77
2021/03/04 13:00:56;;;;;;;11.27;6.33;;;;;;;;;;4377350;32;20205;-76
2021/03/04 13:03:21;;;;;;;15.33;7.07;;;;;;;;;;4377012;32;20189;-73
2021/03/04 13:05:46;;;;;;;12.80;5.97;;;;;;;;;;4373232;32;20675;-75
2021/03/04 13:08:11;;;;;;;13.23;7.70;;;;;;;;;;4369909;32;20607;-72
2021/03/04 13:10:37;;;;;;;14.07;7.77;;;;;;;;;;4389053;32;20155;-75
2021/03/04 13:13:03;;;;;;;20.57;8.07;;;;;;;;;;4391309;32;20200;-75
2021/03/04 13:15:31;;;;;;;17.30;7.07;;;;;;;;;;4376964;32;20170;-76
2021/03/04 13:17:57;;;;;;;14.57;7.60;;;;;;;;;;4390666;32;20138;-76
2021/03/04 13:20:22;;;;;;;13.97;7.43;;;;;;;;;;4377630;32;20174;-76
2021/03/04 13:22:47;;;;;;;14.47;7.37;;;;;;;;;;4377456;32;20150;-76
2021/03/04 13:25:13;;;;;;;13.83;7.10;;;;;;;;;;4376590;32;20185;-74
2021/03/04 13:27:38;;;;;;;14.93;7.80;;;;;;;;;;4396545;32;20244;-76
2021/03/04 13:30:03;;;;;;;12.60;7.47;;;;;;;;;;4405518;32;20179;-75
2021/03/04 13:32:30;;;;;;;12.27;7.23;;;;;;;;;;4391891;32;20182;-77
2021/03/04 13:34:55;;;;;;;14.80;7.37;;;;;;;;;;4392306;32;20242;-77
2021/03/04 13:37:20;;;;;;;9.50;5.43;;;;;;;;;;4405487;32;20517;-75
2021/03/04 13:39:46;;;;;;;12.47;6.03;;;;;;;;;;4391154;32;20204;-76
2021/03/04 13:42:14;;;;;;;11.20;5.77;;;;;;;;;;4404384;32;20154;-76
2021/03/04 13:44:39;;;;;;;14.83;7.07;;;;;;;;;;4391158;32;20214;-76
2021/03/04 13:47:05;;;;;;;14.97;5.83;;;;;;;;;;4393957;32;20228;-75
2021/03/04 13:49:30;;;;;;;10.67;5.60;;;;;;;;;;4392173;32;20750;-73
2021/03/04 13:51:55;;;;;;;13.17;4.87;;;;;;;;;;4390610;32;20181;-74
2021/03/04 13:54:20;;;;;;;12.03;5.30;;;;;;;;;;4390686;32;20208;-75
2021/03/04 13:56:46;;;;;;;11.00;4.93;;;;;;;;;;4405781;32;20176;-76
2021/03/04 13:59:11;;;;;;;7.57;4.13;;;;;;;;;;4391526;32;20207;-77
2021/03/04 14:01:36;;;;;;;10.53;4.07;;;;;;;;;;4405354;32;20216;-75
2021/03/04 14:04:02;;;;;;;9.57;5.10;;;;;;;;;;4391584;32;20190;-76
2021/03/04 14:06:29;;;;;;;16.60;5.70;;;;;;;;;;4404128;32;20200;-74
2021/03/04 14:08:54;;;;;;;12.67;5.93;;;;;;;;;;4391510;32;20192;-75
2021/03/04 14:11:21;;;;;;;10.33;6.30;;;;;;;;;;4393103;32;20201;-74
2021/03/04 14:13:46;;;;;;;12.73;6.20;;;;;;;;;;4415326;32;20177;-75
2021/03/04 14:16:11;;;;;;;11.00;6.70;;;;;;;;;;4388751;32;20174;-76